sensor_id;sensor_type;location;lat;lon;timestamp;pressure;altitude;pressure_sealevel;temperature;humidity
692;BME280;70475;50.084;8.576;2024-02-21T00:00:57;101572.97;;;6.97;100.00
692;BME280;70475;50.084;8.576;2024-02-21T00:03:25;101571.28;;;6.96;100.00
692;BME280;70475;50.084;8.576;2024-02-21T00:05:53;101576.03;;;6.93;100.00
692;BME280;70475;50.084;8.576;2024-02-21T00:08:21;101576.69;;;6.95;100.00
692;BME280;70475;50.084;8.576;2024-02-21T00:10:49;101581.88;;;6.96;100.00
692;BME280;70475;50.084;8.576;2024-02-21T00:13:17;101577.00;;;6.92;100.00
692;BME280;70475;50.084;8.576;2024-02-21T00:15:45;101584.66;;;6.95;100.00
692;BME280;70475;50.084;8.576;2024-02-21T00:18:12;101585.63;;;6.94;100.00
692;BME280;70475;50.084;8.576;2024-02-21T00:20:40;101571.53;;;6.93;100.00
692;BME280;70475;50.084;8.576;2024-02-21T00:23:07;101571.00;;;6.90;100.00
692;BME280;70475;50.084;8.576;2024-02-21T00:25:36;101572.66;;;6.91;100.00
692;BME280;70475;50.084;8.576;2024-02-21T00:28:05;101561.53;;;6.87;100.00
692;BME280;70475;50.084;8.576;2024-02-21T00:30:32;101546.47;;;6.88;100.00
692;BME280;70475;50.084;8.576;2024-02-21T00:33:00;101540.50;;;6.86;100.00
692;BME280;70475;50.084;8.576;2024-02-21T00:35:27;101528.91;;;6.87;100.00
692;BME280;70475;50.084;8.576;2024-02-21T00:37:55;101537.13;;;6.84;100.00
692;BME280;70475;50.084;8.576;2024-02-21T00:40:23;101531.56;;;6.87;100.00
692;BME280;70475;50.084;8.576;2024-02-21T00:42:52;101529.31;;;6.82;100.00
692;BME280;70475;50.084;8.576;2024-02-21T00:45:20;101526.97;;;6.79;100.00
692;BME280;70475;50.084;8.576;2024-02-21T00:47:47;101525.84;;;6.82;100.00
692;BME280;70475;50.084;8.576;2024-02-21T00:50:15;101506.63;;;6.80;100.00
692;BME280;70475;50.084;8.576;2024-02-21T00:52:42;101492.41;;;6.81;100.00
692;BME280;70475;50.084;8.576;2024-02-21T00:55:11;101490.47;;;6.83;100.00
692;BME280;70475;50.084;8.576;2024-02-21T00:57:38;101474.72;;;6.81;100.00
692;BME280;70475;50.084;8.576;2024-02-21T01:00:08;101488.78;;;6.72;100.00
692;BME280;70475;50.084;8.576;2024-02-21T01:02:36;101491.84;;;6.77;100.00
692;BME280;70475;50.084;8.576;2024-02-21T01:05:04;101507.88;;;6.85;100.00
692;BME280;70475;50.084;8.576;2024-02-21T01:07:31;101500.91;;;6.84;100.00
692;BME280;70475;50.084;8.576;2024-02-21T01:09:59;101496.84;;;6.80;100.00
692;BME280;70475;50.084;8.576;2024-02-21T01:12:27;101497.00;;;6.79;100.00
692;BME280;70475;50.084;8.576;2024-02-21T01:14:54;101514.00;;;6.86;100.00
692;BME280;70475;50.084;8.576;2024-02-21T01:17:23;101504.53;;;6.83;100.00
692;BME280;70475;50.084;8.576;2024-02-21T01:19:51;101501.59;;;6.86;100.00
692;BME280;70475;50.084;8.576;2024-02-21T01:22:18;101511.63;;;6.92;100.00
692;BME280;70475;50.084;8.576;2024-02-21T01:24:46;101516.94;;;6.92;100.00
692;BME280;70475;50.084;8.576;2024-02-21T01:27:13;101514.97;;;6.85;100.00
692;BME280;70475;50.084;8.576;2024-02-21T01:29:41;101515.53;;;6.88;100.00
692;BME280;70475;50.084;8.576;2024-02-21T01:32:08;101520.00;;;6.88;100.00
692;BME280;70475;50.084;8.576;2024-02-21T01:34:37;101512.59;;;6.82;100.00
692;BME280;70475;50.084;8.576;2024-02-21T01:37:05;101508.56;;;6.78;100.00
692;BME280;70475;50.084;8.576;2024-02-21T01:39:34;101503.69;;;6.73;100.00
692;BME280;70475;50.084;8.576;2024-02-21T01:42:01;101504.22;;;6.67;100.00
692;BME280;70475;50.084;8.576;2024-02-21T01:44:29;101492.13;;;6.65;100.00
692;BME280;70475;50.084;8.576;2024-02-21T01:46:57;101484.72;;;6.59;100.00
692;BME280;70475;50.084;8.576;2024-02-21T01:49:25;101484.03;;;6.66;100.00
692;BME280;70475;50.084;8.576;2024-02-21T01:51:54;101464.81;;;6.64;100.00
692;BME280;70475;50.084;8.576;2024-02-21T01:54:22;101461.88;;;6.67;100.00
692;BME280;70475;50.084;8.576;2024-02-21T01:56:50;101473.47;;;6.66;100.00
692;BME280;70475;50.084;8.576;2024-02-21T01:59:18;101465.94;;;6.62;100.00
692;BME280;70475;50.084;8.576;2024-02-21T02:01:46;101457.56;;;6.66;100.00
692;BME280;70475;50.084;8.576;2024-02-21T02:04:14;101456.88;;;6.64;100.00
692;BME280;70475;50.084;8.576;2024-02-21T02:06:42;101464.09;;;6.53;100.00
692;BME280;70475;50.084;8.576;2024-02-21T02:09:12;101454.22;;;6.45;100.00
692;BME280;70475;50.084;8.576;2024-02-21T02:11:39;101455.91;;;6.56;100.00
692;BME280;70475;50.084;8.576;2024-02-21T02:14:07;101464.97;;;6.53;100.00
692;BME280;70475;50.084;8.576;2024-02-21T02:16:34;101461.31;;;6.54;100.00
692;BME280;70475;50.084;8.576;2024-02-21T02:19:02;101451.16;;;6.69;100.00
692;BME280;70475;50.084;8.576;2024-02-21T02:21:32;101454.50;;;6.71;100.00
692;BME280;70475;50.084;8.576;2024-02-21T02:24:04;101456.75;;;6.75;100.00
692;BME280;70475;50.084;8.576;2024-02-21T02:26:32;101456.75;;;6.75;100.00
692;BME280;70475;50.084;8.576;2024-02-21T02:29:01;101453.81;;;6.78;100.00
692;BME280;70475;50.084;8.576;2024-02-21T02:31:29;101436.00;;;6.71;100.00
692;BME280;70475;50.084;8.576;2024-02-21T02:33:56;101428.59;;;6.55;100.00
692;BME280;70475;50.084;8.576;2024-02-21T02:36:26;101435.56;;;6.56;100.00
692;BME280;70475;50.084;8.576;2024-02-21T02:38:53;101428.31;;;6.58;100.00
692;BME280;70475;50.084;8.576;2024-02-21T02:41:22;101428.03;;;6.61;100.00
692;BME280;70475;50.084;8.576;2024-02-21T02:43:50;101415.22;;;6.47;100.00
692;BME280;70475;50.084;8.576;2024-02-21T02:46:17;101407.97;;;6.49;100.00
692;BME280;70475;50.084;8.576;2024-02-21T02:48:45;101405.47;;;6.38;100.00
692;BME280;70475;50.084;8.576;2024-02-21T02:51:13;101408.84;;;6.40;100.00
692;BME280;70475;50.084;8.576;2024-02-21T02:53:40;101411.88;;;6.45;100.00
692;BME280;70475;50.084;8.576;2024-02-21T02:56:14;101405.75;;;6.35;100.00
692;BME280;70475;50.084;8.576;2024-02-21T02:58:43;101414.94;;;6.31;100.00
692;BME280;70475;50.084;8.576;2024-02-21T03:01:11;101422.47;;;6.45;100.00
692;BME280;70475;50.084;8.576;2024-02-21T03:03:38;101421.91;;;6.51;100.00
692;BME280;70475;50.084;8.576;2024-02-21T03:06:06;101425.25;;;6.53;100.00
692;BME280;70475;50.084;8.576;2024-02-21T03:08:33;101412.03;;;6.63;100.00
692;BME280;70475;50.084;8.576;2024-02-21T03:11:01;101407.28;;;6.66;100.00
692;BME280;70475;50.084;8.576;2024-02-21T03:13:29;101396.97;;;6.73;100.00
692;BME280;70475;50.084;8.576;2024-02-21T03:15:58;101387.50;;;6.70;100.00
692;BME280;70475;50.084;8.576;2024-02-21T03:18:25;101395.72;;;6.67;100.00
692;BME280;70475;50.084;8.576;2024-02-21T03:20:53;101386.78;;;6.68;100.00
692;BME280;70475;50.084;8.576;2024-02-21T03:23:21;101378.19;;;6.66;100.00
692;BME280;70475;50.084;8.576;2024-02-21T03:25:48;101379.56;;;6.70;100.00
692;BME280;70475;50.084;8.576;2024-02-21T03:28:16;101373.44;;;6.70;100.00
692;BME280;70475;50.084;8.576;2024-02-21T03:30:44;101365.78;;;6.76;100.00
692;BME280;70475;50.084;8.576;2024-02-21T03:33:13;101359.50;;;6.77;100.00
692;BME280;70475;50.084;8.576;2024-02-21T03:35:40;101361.56;;;6.83;100.00
692;BME280;70475;50.084;8.576;2024-02-21T03:38:08;101351.69;;;6.85;100.00
692;BME280;70475;50.084;8.576;2024-02-21T03:40:36;101340.38;;;6.83;100.00
692;BME280;70475;50.084;8.576;2024-02-21T03:43:03;101353.34;;;6.86;100.00
692;BME280;70475;50.084;8.576;2024-02-21T03:45:31;101349.75;;;6.87;100.00
692;BME280;70475;50.084;8.576;2024-02-21T03:47:58;101348.47;;;6.91;100.00
692;BME280;70475;50.084;8.576;2024-02-21T03:50:27;101345.09;;;6.99;100.00
692;BME280;70475;50.084;8.576;2024-02-21T03:52:56;101345.63;;;7.02;100.00
692;BME280;70475;50.084;8.576;2024-02-21T03:55:23;101355.78;;;7.07;100.00
692;BME280;70475;50.084;8.576;2024-02-21T03:57:51;101363.59;;;7.08;100.00
692;BME280;70475;50.084;8.576;2024-02-21T04:00:18;101361.53;;;7.02;100.00
692;BME280;70475;50.084;8.576;2024-02-21T04:02:46;101354.44;;;7.03;100.00
692;BME280;70475;50.084;8.576;2024-02-21T04:05:15;101358.59;;;7.05;100.00
692;BME280;70475;50.084;8.576;2024-02-21T04:07:44;101357.22;;;7.01;100.00
692;BME280;70475;50.084;8.576;2024-02-21T04:10:12;101355.94;;;7.05;100.00
692;BME280;70475;50.084;8.576;2024-02-21T04:12:40;101361.53;;;7.02;100.00
692;BME280;70475;50.084;8.576;2024-02-21T04:15:08;101350.41;;;6.99;100.00
692;BME280;70475;50.084;8.576;2024-02-21T04:17:36;101362.78;;;6.98;100.00
692;BME280;70475;50.084;8.576;2024-02-21T04:20:05;101353.56;;;7.02;100.00
692;BME280;70475;50.084;8.576;2024-02-21T04:22:34;101345.34;;;7.05;100.00
692;BME280;70475;50.084;8.576;2024-02-21T04:25:04;101334.75;;;7.05;100.00
692;BME280;70475;50.084;8.576;2024-02-21T04:27:31;101320.44;;;6.98;100.00
692;BME280;70475;50.084;8.576;2024-02-21T04:30:00;101314.72;;;7.03;100.00
692;BME280;70475;50.084;8.576;2024-02-21T04:32:27;101316.78;;;6.99;100.00
692;BME280;70475;50.084;8.576;2024-02-21T04:34:55;101305.97;;;6.93;100.00
692;BME280;70475;50.084;8.576;2024-02-21T04:37:23;101293.72;;;6.92;100.00
692;BME280;70475;50.084;8.576;2024-02-21T04:39:50;101291.78;;;6.84;100.00
692;BME280;70475;50.084;8.576;2024-02-21T04:42:19;101295.09;;;6.86;100.00
692;BME280;70475;50.084;8.576;2024-02-21T04:44:47;101295.69;;;6.80;100.00
692;BME280;70475;50.084;8.576;2024-02-21T04:47:14;101288.16;;;6.76;100.00
692;BME280;70475;50.084;8.576;2024-02-21T04:49:42;101288.03;;;6.77;100.00
692;BME280;70475;50.084;8.576;2024-02-21T04:52:10;101289.81;;;6.86;100.00
692;BME280;70475;50.084;8.576;2024-02-21T04:54:37;101291.31;;;6.98;100.00
692;BME280;70475;50.084;8.576;2024-02-21T04:57:05;101276.84;;;6.93;100.00
692;BME280;70475;50.084;8.576;2024-02-21T04:59:34;101274.03;;;6.94;100.00
692;BME280;70475;50.084;8.576;2024-02-21T05:02:02;101261.78;;;6.93;100.00
692;BME280;70475;50.084;8.576;2024-02-21T05:04:30;101267.97;;;6.75;100.00
692;BME280;70475;50.084;8.576;2024-02-21T05:06:59;101261.88;;;6.65;100.00
692;BME280;70475;50.084;8.576;2024-02-21T05:09:27;101272.31;;;6.66;100.00
692;BME280;70475;50.084;8.576;2024-02-21T05:11:55;101277.63;;;6.66;100.00
692;BME280;70475;50.084;8.576;2024-02-21T05:14:22;101281.34;;;6.73;100.00
692;BME280;70475;50.084;8.576;2024-02-21T05:16:51;101285.44;;;6.58;100.00
692;BME280;70475;50.084;8.576;2024-02-21T05:19:19;101271.53;;;6.56;100.00
692;BME280;70475;50.084;8.576;2024-02-21T05:21:47;101278.06;;;6.52;100.00
692;BME280;70475;50.084;8.576;2024-02-21T05:24:15;101281.28;;;6.37;100.00
692;BME280;70475;50.084;8.576;2024-02-21T05:26:42;101281.44;;;6.35;100.00
692;BME280;70475;50.084;8.576;2024-02-21T05:29:10;101296.31;;;6.36;100.00
692;BME280;70475;50.084;8.576;2024-02-21T05:31:56;101307.72;;;6.46;100.00
692;BME280;70475;50.084;8.576;2024-02-21T05:34:24;101309.13;;;6.50;100.00
692;BME280;70475;50.084;8.576;2024-02-21T05:36:53;101300.34;;;6.59;100.00
692;BME280;70475;50.084;8.576;2024-02-21T05:39:21;101306.03;;;6.64;100.00
692;BME280;70475;50.084;8.576;2024-02-21T05:41:49;101299.34;;;6.60;100.00
692;BME280;70475;50.084;8.576;2024-02-21T05:44:18;101296.53;;;6.71;100.00
692;BME280;70475;50.084;8.576;2024-02-21T05:46:46;101298.78;;;6.66;100.00
692;BME280;70475;50.084;8.576;2024-02-21T05:49:15;101282.06;;;6.66;100.00
692;BME280;70475;50.084;8.576;2024-02-21T05:51:42;101283.19;;;6.63;100.00
692;BME280;70475;50.084;8.576;2024-02-21T05:54:10;101275.66;;;6.68;100.00
692;BME280;70475;50.084;8.576;2024-02-21T05:56:37;101267.59;;;6.60;100.00
692;BME280;70475;50.084;8.576;2024-02-21T05:59:05;101267.69;;;6.68;100.00
692;BME280;70475;50.084;8.576;2024-02-21T06:01:33;101271.53;;;6.56;100.00
692;BME280;70475;50.084;8.576;2024-02-21T06:04:00;101266.22;;;6.56;100.00
692;BME280;70475;50.084;8.576;2024-02-21T06:06:29;101262.31;;;6.60;100.00
692;BME280;70475;50.084;8.576;2024-02-21T06:08:57;101257.44;;;6.56;100.00
692;BME280;70475;50.084;8.576;2024-02-21T06:11:25;101245.59;;;6.60;100.00
692;BME280;70475;50.084;8.576;2024-02-21T06:13:53;101250.78;;;6.52;100.00
692;BME280;70475;50.084;8.576;2024-02-21T06:16:20;101244.22;;;6.46;100.00
692;BME280;70475;50.084;8.576;2024-02-21T06:18:48;101240.63;;;6.38;100.00
692;BME280;70475;50.084;8.576;2024-02-21T06:21:16;101247.06;;;6.35;100.00
692;BME280;70475;50.084;8.576;2024-02-21T06:23:45;101255.69;;;6.37;100.00
692;BME280;70475;50.084;8.576;2024-02-21T06:26:12;101255.97;;;6.24;100.00
692;BME280;70475;50.084;8.576;2024-02-21T06:28:40;101258.63;;;6.15;100.00
692;BME280;70475;50.084;8.576;2024-02-21T06:31:07;101255.13;;;6.24;100.00
692;BME280;70475;50.084;8.576;2024-02-21T06:33:35;101254.03;;;6.17;100.00
692;BME280;70475;50.084;8.576;2024-02-21T06:36:03;101247.88;;;6.16;100.00
692;BME280;70475;50.084;8.576;2024-02-21T06:38:31;101244.53;;;6.24;100.00
692;BME280;70475;50.084;8.576;2024-02-21T06:41:02;101235.38;;;6.28;100.00
692;BME280;70475;50.084;8.576;2024-02-21T06:43:31;101230.38;;;6.25;100.00
692;BME280;70475;50.084;8.576;2024-02-21T06:46:01;101232.88;;;6.26;100.00
692;BME280;70475;50.084;8.576;2024-02-21T06:48:29;101224.66;;;6.29;100.00
692;BME280;70475;50.084;8.576;2024-02-21T06:50:57;101220.59;;;6.35;100.00
692;BME280;70475;50.084;8.576;2024-02-21T06:53:24;101225.47;;;6.30;100.00
692;BME280;70475;50.084;8.576;2024-02-21T06:55:52;101225.19;;;6.33;100.00
692;BME280;70475;50.084;8.576;2024-02-21T06:58:21;101232.59;;;6.29;100.00
692;BME280;70475;50.084;8.576;2024-02-21T07:00:48;101235.63;;;6.34;100.00
692;BME280;70475;50.084;8.576;2024-02-21T07:03:16;101247.00;;;6.45;100.00
692;BME280;70475;50.084;8.576;2024-02-21T07:05:43;101244.50;;;6.43;100.00
692;BME280;70475;50.084;8.576;2024-02-21T07:08:12;101240.88;;;6.54;100.00
692;BME280;70475;50.084;8.576;2024-02-21T07:10:39;101236.69;;;6.61;100.00
692;BME280;70475;50.084;8.576;2024-02-21T07:13:07;101234.78;;;6.80;100.00
692;BME280;70475;50.084;8.576;2024-02-21T07:15:36;101229.75;;;6.87;100.00
692;BME280;70475;50.084;8.576;2024-02-21T07:18:04;101234.91;;;6.88;100.00
692;BME280;70475;50.084;8.576;2024-02-21T07:20:31;101227.22;;;6.95;100.00
692;BME280;70475;50.084;8.576;2024-02-21T07:23:00;101224.22;;;7.07;100.00
692;BME280;70475;50.084;8.576;2024-02-21T07:25:27;101227.19;;;7.31;100.00
692;BME280;70475;50.084;8.576;2024-02-21T07:27:55;101219.97;;;7.24;100.00
692;BME280;70475;50.084;8.576;2024-02-21T07:30:23;101219.06;;;7.15;100.00
692;BME280;70475;50.084;8.576;2024-02-21T07:32:52;101215.19;;;7.27;100.00
692;BME280;70475;50.084;8.576;2024-02-21T07:35:19;101229.53;;;7.34;100.00
692;BME280;70475;50.084;8.576;2024-02-21T07:37:47;101224.44;;;7.41;100.00
692;BME280;70475;50.084;8.576;2024-02-21T07:40:16;101223.25;;;7.35;100.00
692;BME280;70475;50.084;8.576;2024-02-21T07:42:44;101221.66;;;7.42;100.00
692;BME280;70475;50.084;8.576;2024-02-21T07:45:17;101219.31;;;7.39;100.00
692;BME280;70475;50.084;8.576;2024-02-21T07:47:48;101218.41;;;7.66;100.00
692;BME280;70475;50.084;8.576;2024-02-21T07:50:17;101219.97;;;7.68;100.00
692;BME280;70475;50.084;8.576;2024-02-21T07:52:44;101217.81;;;7.72;100.00
692;BME280;70475;50.084;8.576;2024-02-21T07:55:12;101208.41;;;7.77;100.00
692;BME280;70475;50.084;8.576;2024-02-21T07:57:40;101212.03;;;8.11;100.00
692;BME280;70475;50.084;8.576;2024-02-21T08:00:08;101208.78;;;8.00;100.00
692;BME280;70475;50.084;8.576;2024-02-21T08:02:41;101209.63;;;8.00;100.00
692;BME280;70475;50.084;8.576;2024-02-21T08:05:10;101213.72;;;8.12;100.00
692;BME280;70475;50.084;8.576;2024-02-21T08:07:40;101218.34;;;7.93;100.00
692;BME280;70475;50.084;8.576;2024-02-21T08:10:08;101206.09;;;7.92;100.00
692;BME280;70475;50.084;8.576;2024-02-21T08:12:36;101210.75;;;7.80;100.00
692;BME280;70475;50.084;8.576;2024-02-21T08:15:04;101193.50;;;7.94;100.00
692;BME280;70475;50.084;8.576;2024-02-21T08:17:32;101194.69;;;7.99;100.00
692;BME280;70475;50.084;8.576;2024-02-21T08:20:00;101190.19;;;7.92;100.00
692;BME280;70475;50.084;8.576;2024-02-21T08:22:29;101194.84;;;7.80;100.00
692;BME280;70475;50.084;8.576;2024-02-21T08:24:58;101182.06;;;7.93;100.00
692;BME280;70475;50.084;8.576;2024-02-21T08:27:25;101180.31;;;8.02;100.00
692;BME280;70475;50.084;8.576;2024-02-21T08:29:53;101176.50;;;8.04;100.00
692;BME280;70475;50.084;8.576;2024-02-21T08:32:20;101181.97;;;8.03;100.00
692;BME280;70475;50.084;8.576;2024-02-21T08:34:48;101173.41;;;7.91;100.00
692;BME280;70475;50.084;8.576;2024-02-21T08:37:16;101176.34;;;8.06;100.00
692;BME280;70475;50.084;8.576;2024-02-21T08:39:47;101170.56;;;8.10;100.00
692;BME280;70475;50.084;8.576;2024-02-21T08:42:16;101164.59;;;8.08;100.00
692;BME280;70475;50.084;8.576;2024-02-21T08:44:44;101167.19;;;8.00;100.00
692;BME280;70475;50.084;8.576;2024-02-21T08:47:11;101175.19;;;8.08;100.00
692;BME280;70475;50.084;8.576;2024-02-21T08:49:39;101165.47;;;8.34;100.00
692;BME280;70475;50.084;8.576;2024-02-21T08:52:07;101164.72;;;8.50;100.00
692;BME280;70475;50.084;8.576;2024-02-21T08:54:34;101165.66;;;8.67;100.00
692;BME280;70475;50.084;8.576;2024-02-21T08:57:02;101152.59;;;8.48;100.00
692;BME280;70475;50.084;8.576;2024-02-21T08:59:32;101157.38;;;8.18;100.00
692;BME280;70475;50.084;8.576;2024-02-21T09:02:00;101152.16;;;8.26;100.00
692;BME280;70475;50.084;8.576;2024-02-21T09:04:29;101143.00;;;8.47;100.00
692;BME280;70475;50.084;8.576;2024-02-21T09:06:57;101148.63;;;8.44;100.00
692;BME280;70475;50.084;8.576;2024-02-21T09:09:25;101150.34;;;8.61;100.00
692;BME280;70475;50.084;8.576;2024-02-21T09:11:55;101140.28;;;8.38;100.00
692;BME280;70475;50.084;8.576;2024-02-21T09:14:24;101132.84;;;8.76;100.00
692;BME280;70475;50.084;8.576;2024-02-21T09:16:52;101131.16;;;8.75;100.00
692;BME280;70475;50.084;8.576;2024-02-21T09:19:21;101131.44;;;8.64;100.00
692;BME280;70475;50.084;8.576;2024-02-21T09:21:49;101121.16;;;8.61;100.00
692;BME280;70475;50.084;8.576;2024-02-21T09:24:17;101112.88;;;8.64;100.00
692;BME280;70475;50.084;8.576;2024-02-21T09:26:45;101119.50;;;8.60;100.00
692;BME280;70475;50.084;8.576;2024-02-21T09:29:12;101122.94;;;8.94;100.00
692;BME280;70475;50.084;8.576;2024-02-21T09:31:42;101111.31;;;9.03;100.00
692;BME280;70475;50.084;8.576;2024-02-21T09:34:11;101107.97;;;8.85;100.00
692;BME280;70475;50.084;8.576;2024-02-21T09:36:39;101108.66;;;9.03;100.00
692;BME280;70475;50.084;8.576;2024-02-21T09:39:07;101106.13;;;8.77;100.00
692;BME280;70475;50.084;8.576;2024-02-21T09:41:36;101108.34;;;8.98;100.00
692;BME280;70475;50.084;8.576;2024-02-21T09:44:10;101109.34;;;9.05;100.00
692;BME280;70475;50.084;8.576;2024-02-21T09:46:43;101106.53;;;9.06;100.00
692;BME280;70475;50.084;8.576;2024-02-21T09:49:21;101102.50;;;8.94;100.00
692;BME280;70475;50.084;8.576;2024-02-21T09:51:53;101096.88;;;8.97;100.00
692;BME280;70475;50.084;8.576;2024-02-21T09:54:23;101099.56;;;9.05;100.00
692;BME280;70475;50.084;8.576;2024-02-21T09:56:50;101100.06;;;9.17;100.00
692;BME280;70475;50.084;8.576;2024-02-21T09:59:18;101098.56;;;9.06;100.00
692;BME280;70475;50.084;8.576;2024-02-21T10:01:46;101089.78;;;9.30;100.00
692;BME280;70475;50.084;8.576;2024-02-21T10:04:15;101085.47;;;9.37;100.00
692;BME280;70475;50.084;8.576;2024-02-21T10:06:43;101091.13;;;9.82;100.00
692;BME280;70475;50.084;8.576;2024-02-21T10:09:20;101093.44;;;9.53;100.00
692;BME280;70475;50.084;8.576;2024-02-21T10:11:49;101091.44;;;9.15;100.00
692;BME280;70475;50.084;8.576;2024-02-21T10:14:17;101084.00;;;9.50;100.00
692;BME280;70475;50.084;8.576;2024-02-21T10:16:46;101084.16;;;9.33;100.00
692;BME280;70475;50.084;8.576;2024-02-21T10:19:19;101076.16;;;9.33;100.00
692;BME280;70475;50.084;8.576;2024-02-21T10:22:03;101067.19;;;9.50;100.00
692;BME280;70475;50.084;8.576;2024-02-21T10:24:31;101068.88;;;9.35;100.00
692;BME280;70475;50.084;8.576;2024-02-21T10:27:02;101059.88;;;9.28;100.00
692;BME280;70475;50.084;8.576;2024-02-21T10:29:30;101057.88;;;9.62;100.00
692;BME280;70475;50.084;8.576;2024-02-21T10:32:05;101047.56;;;10.07;100.00
692;BME280;70475;50.084;8.576;2024-02-21T10:34:35;101048.91;;;9.79;100.00
692;BME280;70475;50.084;8.576;2024-02-21T10:37:05;101037.28;;;9.72;100.00
692;BME280;70475;50.084;8.576;2024-02-21T10:39:33;101034.94;;;9.77;100.00
692;BME280;70475;50.084;8.576;2024-02-21T10:42:02;101034.31;;;9.43;100.00
692;BME280;70475;50.084;8.576;2024-02-21T10:44:32;101030.16;;;9.32;100.00
692;BME280;70475;50.084;8.576;2024-02-21T10:47:04;101024.84;;;9.40;100.00
692;BME280;70475;50.084;8.576;2024-02-21T10:49:38;101026.47;;;9.65;100.00
692;BME280;70475;50.084;8.576;2024-02-21T10:52:13;101028.44;;;9.95;100.00
692;BME280;70475;50.084;8.576;2024-02-21T10:54:44;101014.00;;;9.74;100.00
692;BME280;70475;50.084;8.576;2024-02-21T10:57:13;101009.19;;;9.69;100.00
692;BME280;70475;50.084;8.576;2024-02-21T10:59:44;101004.03;;;9.68;100.00
692;BME280;70475;50.084;8.576;2024-02-21T11:02:12;101005.50;;;9.78;100.00
692;BME280;70475;50.084;8.576;2024-02-21T11:04:41;100996.84;;;9.84;100.00
692;BME280;70475;50.084;8.576;2024-02-21T11:07:10;100998.34;;;9.87;100.00
692;BME280;70475;50.084;8.576;2024-02-21T11:09:38;100991.63;;;10.15;100.00
692;BME280;70475;50.084;8.576;2024-02-21T11:12:06;100978.75;;;9.80;100.00
692;BME280;70475;50.084;8.576;2024-02-21T11:14:38;100987.00;;;9.93;100.00
692;BME280;70475;50.084;8.576;2024-02-21T11:17:14;100971.06;;;9.93;100.00
692;BME280;70475;50.084;8.576;2024-02-21T11:19:44;100966.75;;;9.92;100.00
692;BME280;70475;50.084;8.576;2024-02-21T11:22:15;100957.19;;;10.13;100.00
692;BME280;70475;50.084;8.576;2024-02-21T11:24:43;100958.72;;;10.08;100.00
692;BME280;70475;50.084;8.576;2024-02-21T11:27:12;100957.34;;;10.20;100.00
692;BME280;70475;50.084;8.576;2024-02-21T11:29:40;100953.03;;;10.19;100.00
692;BME280;70475;50.084;8.576;2024-02-21T11:32:10;100949.00;;;10.23;100.00
692;BME280;70475;50.084;8.576;2024-02-21T11:34:38;100948.19;;;10.22;100.00
692;BME280;70475;50.084;8.576;2024-02-21T11:37:14;100933.28;;;10.44;100.00
692;BME280;70475;50.084;8.576;2024-02-21T11:39:43;100929.00;;;10.35;100.00
692;BME280;70475;50.084;8.576;2024-02-21T11:42:12;100924.63;;;10.42;100.00
692;BME280;70475;50.084;8.576;2024-02-21T11:44:40;100914.31;;;10.39;100.00
692;BME280;70475;50.084;8.576;2024-02-21T11:47:09;100908.31;;;10.37;100.00
692;BME280;70475;50.084;8.576;2024-02-21T11:49:38;100906.28;;;10.47;100.00
692;BME280;70475;50.084;8.576;2024-02-21T11:52:06;100904.59;;;10.23;100.00
692;BME280;70475;50.084;8.576;2024-02-21T11:54:35;100906.00;;;10.11;100.00
692;BME280;70475;50.084;8.576;2024-02-21T11:57:03;100900.22;;;10.30;100.00
692;BME280;70475;50.084;8.576;2024-02-21T11:59:31;100884.00;;;10.40;100.00
692;BME280;70475;50.084;8.576;2024-02-21T12:02:00;100885.63;;;10.26;100.00
692;BME280;70475;50.084;8.576;2024-02-21T12:04:29;100878.47;;;10.72;100.00
692;BME280;70475;50.084;8.576;2024-02-21T12:06:59;100861.84;;;10.70;100.00
692;BME280;70475;50.084;8.576;2024-02-21T12:09:27;100862.19;;;10.67;100.00
692;BME280;70475;50.084;8.576;2024-02-21T12:12:00;100857.34;;;10.71;100.00
692;BME280;70475;50.084;8.576;2024-02-21T12:14:28;100856.28;;;10.94;100.00
692;BME280;70475;50.084;8.576;2024-02-21T12:16:57;100850.50;;;10.68;100.00
692;BME280;70475;50.084;8.576;2024-02-21T12:19:25;100848.31;;;10.94;100.00
692;BME280;70475;50.084;8.576;2024-02-21T12:21:53;100845.19;;;10.68;100.00
692;BME280;70475;50.084;8.576;2024-02-21T12:24:22;100836.47;;;10.74;100.00
692;BME280;70475;50.084;8.576;2024-02-21T12:26:51;100823.66;;;10.78;100.00
692;BME280;70475;50.084;8.576;2024-02-21T12:29:20;100824.09;;;10.81;100.00
692;BME280;70475;50.084;8.576;2024-02-21T12:31:49;100816.88;;;10.90;100.00
692;BME280;70475;50.084;8.576;2024-02-21T12:34:17;100810.50;;;10.76;100.00
692;BME280;70475;50.084;8.576;2024-02-21T12:37:01;100800.69;;;10.91;100.00
692;BME280;70475;50.084;8.576;2024-02-21T12:39:29;100801.97;;;11.39;100.00
692;BME280;70475;50.084;8.576;2024-02-21T12:41:58;100797.31;;;10.97;100.00
692;BME280;70475;50.084;8.576;2024-02-21T12:44:27;100789.75;;;10.86;100.00
692;BME280;70475;50.084;8.576;2024-02-21T12:46:55;100780.28;;;10.84;100.00
692;BME280;70475;50.084;8.576;2024-02-21T12:49:22;100783.66;;;10.63;100.00
692;BME280;70475;50.084;8.576;2024-02-21T12:51:51;100780.19;;;10.77;100.00
692;BME280;70475;50.084;8.576;2024-02-21T12:54:18;100777.16;;;11.09;100.00
692;BME280;70475;50.084;8.576;2024-02-21T12:56:46;100781.94;;;11.14;100.00
692;BME280;70475;50.084;8.576;2024-02-21T12:59:13;100780.75;;;10.87;100.00
692;BME280;70475;50.084;8.576;2024-02-21T13:01:42;100780.19;;;11.06;100.00
692;BME280;70475;50.084;8.576;2024-02-21T13:04:10;100774.25;;;11.19;100.00
692;BME280;70475;50.084;8.576;2024-02-21T13:06:38;100769.63;;;10.69;100.00
692;BME280;70475;50.084;8.576;2024-02-21T13:09:06;100752.25;;;10.73;100.00
692;BME280;70475;50.084;8.576;2024-02-21T13:11:37;100753.91;;;10.74;100.00
692;BME280;70475;50.084;8.576;2024-02-21T13:14:05;100740.34;;;10.84;100.00
692;BME280;70475;50.084;8.576;2024-02-21T13:16:33;100738.09;;;10.73;100.00